Time;durP1;ratioP1;P1;durP2;ratioP2;P2;SDS_P1;SDS_P2;PMS_P1;PMS_P2;Temp;Humidity;BMP_temperature;BMP_pressure;BME280_temperature;BME280_humidity;BME280_pressure;Samples;Min_cycle;Max_cycle;Signal;HPM_P1;HPM_P2
2023/05/15 00:02:06;;;;;;;3.40;3.10;;;14.30;1.00;;;;;;4990794;28;20183;-73
2023/05/15 00:04:31;;;;;;;6.60;3.90;;;14.30;1.00;;;;;;4989570;28;20705;-73
2023/05/15 00:06:57;;;;;;;4.27;3.53;;;14.30;1.00;;;;;;4988558;28;20673;-73
2023/05/15 00:09:23;;;;;;;4.83;3.60;;;14.40;1.00;;;;;;4989423;28;20187;-71
2023/05/15 00:11:48;;;;;;;4.00;3.60;;;14.40;1.00;;;;;;4989084;28;20234;-72
2023/05/15 00:14:14;;;;;;;9.63;4.23;;;14.30;1.00;;;;;;4989498;28;20241;-73
2023/05/15 00:16:39;;;;;;;4.23;3.77;;;14.30;1.00;;;;;;4990360;28;20203;-73
2023/05/15 00:19:05;;;;;;;4.87;3.87;;;14.30;1.00;;;;;;4988938;28;20246;-73
2023/05/15 00:21:30;;;;;;;4.70;4.00;;;14.30;1.00;;;;;;4990165;28;20185;-73
2023/05/15 00:23:57;;;;;;;6.23;3.60;;;14.40;1.00;;;;;;4988441;28;20182;-72
2023/05/15 00:26:23;;;;;;;5.13;3.47;;;14.40;1.00;;;;;;4988359;28;20329;-73
2023/05/15 00:28:49;;;;;;;4.00;3.57;;;14.40;1.00;;;;;;4988705;28;20444;-73
2023/05/15 00:31:15;;;;;;;5.87;3.63;;;14.30;1.00;;;;;;4989927;28;20438;-74
2023/05/15 00:33:41;;;;;;;4.60;3.60;;;14.20;1.00;;;;;;4988391;28;20518;-73
2023/05/15 00:36:07;;;;;;;4.73;3.93;;;14.20;1.00;;;;;;4988301;28;20241;-72
2023/05/15 00:38:33;;;;;;;4.20;3.80;;;14.20;1.00;;;;;;4989818;28;20238;-73
2023/05/15 00:41:00;;;;;;;3.70;3.40;;;14.20;1.00;;;;;;4989118;28;20434;-73
2023/05/15 00:43:27;;;;;;;7.73;3.90;;;14.20;1.00;;;;;;4988255;28;20228;-71
2023/05/15 00:45:53;;;;;;;5.70;3.63;;;14.20;1.00;;;;;;4989371;28;20470;-73
2023/05/15 00:48:21;;;;;;;6.97;3.70;;;14.20;1.00;;;;;;4988807;28;20476;-73
2023/05/15 00:50:49;;;;;;;4.97;3.83;;;14.20;1.00;;;;;;4988590;28;20534;-73
2023/05/15 00:53:14;;;;;;;3.90;3.50;;;14.20;1.00;;;;;;4988520;28;20434;-73
2023/05/15 00:55:41;;;;;;;4.00;3.50;;;14.20;1.00;;;;;;4989197;28;20465;-73
2023/05/15 00:58:09;;;;;;;4.20;3.80;;;14.10;1.00;;;;;;4989533;28;20653;-73
2023/05/15 01:00:35;;;;;;;4.10;3.70;;;14.20;1.00;;;;;;4987259;28;20473;-72
2023/05/15 01:03:00;;;;;;;4.17;3.63;;;14.20;1.00;;;;;;4989072;28;20430;-73
2023/05/15 01:05:26;;;;;;;6.33;4.10;;;14.30;1.00;;;;;;4989796;28;20460;-71
2023/05/15 01:08:02;;;;;;;4.97;4.13;;;14.40;1.00;;;;;;4990198;28;20678;-73
2023/05/15 01:10:28;;;;;;;6.57;4.30;;;14.30;1.00;;;;;;4990275;28;20426;-72
2023/05/15 01:12:55;;;;;;;6.13;3.83;;;14.20;1.00;;;;;;5004666;28;20754;-73
2023/05/15 01:15:22;;;;;;;8.67;4.50;;;14.10;1.00;;;;;;4990321;28;20206;-73
2023/05/15 01:17:49;;;;;;;5.00;3.70;;;14.20;1.00;;;;;;4988742;28;20438;-73
2023/05/15 01:20:17;;;;;;;5.30;3.80;;;14.20;1.00;;;;;;4990772;28;20833;-73
2023/05/15 01:22:53;;;;;;;5.07;3.70;;;14.20;1.00;;;;;;4988333;28;20512;-73
2023/05/15 01:25:57;;;;;;;4.43;3.93;;;14.10;1.00;;;;;;4989537;28;20533;-73
2023/05/15 01:28:30;;;;;;;5.17;3.70;;;13.90;1.00;;;;;;4985829;28;20446;-73
2023/05/15 01:30:58;;;;;;;8.73;4.10;;;13.80;1.00;;;;;;4983192;28;20903;-73
2023/05/15 01:33:27;;;;;;;10.90;4.10;;;13.70;1.00;;;;;;4989834;28;20540;-72
2023/05/15 01:36:04;;;;;;;9.90;3.80;;;13.70;1.00;;;;;;4988185;28;20460;-73
2023/05/15 01:38:49;;;;;;;5.27;4.50;;;13.70;1.00;;;;;;4988036;28;20445;-72
2023/05/15 01:41:21;;;;;;;5.17;4.00;;;13.70;1.00;;;;;;4989083;28;21070;-73
2023/05/15 01:43:50;;;;;;;4.57;3.60;;;13.70;1.00;;;;;;4989274;28;20434;-72
2023/05/15 01:46:20;;;;;;;5.77;4.00;;;13.80;1.00;;;;;;4988345;28;20985;-73
2023/05/15 01:48:48;;;;;;;4.00;3.60;;;13.80;1.00;;;;;;4988049;28;20440;-72
2023/05/15 01:51:16;;;;;;;6.60;4.27;;;13.80;1.00;;;;;;4989460;28;20430;-73
2023/05/15 01:53:43;;;;;;;4.70;4.30;;;13.80;1.00;;;;;;4988702;28;20485;-72
2023/05/15 01:56:11;;;;;;;6.93;3.97;;;13.70;1.00;;;;;;4990520;28;20446;-73
2023/05/15 01:58:39;;;;;;;4.77;4.23;;;13.70;1.00;;;;;;4988381;28;20445;-73
2023/05/15 02:01:05;;;;;;;4.87;4.13;;;13.60;1.00;;;;;;4990151;28;20458;-73
2023/05/15 02:03:34;;;;;;;4.87;4.27;;;13.60;1.00;;;;;;4988706;28;20478;-71
2023/05/15 02:06:01;;;;;;;5.20;3.90;;;13.70;1.00;;;;;;4988436;28;20226;-73
2023/05/15 02:08:27;;;;;;;6.27;4.70;;;13.60;1.00;;;;;;4989097;28;20426;-72
2023/05/15 02:10:55;;;;;;;5.00;4.50;;;13.60;1.00;;;;;;4989510;28;20509;-73
2023/05/15 02:13:21;;;;;;;6.73;4.13;;;13.60;1.00;;;;;;4988772;28;20459;-72
2023/05/15 02:15:46;;;;;;;5.30;4.20;;;13.50;1.00;;;;;;4986947;28;20516;-72
2023/05/15 02:18:12;;;;;;;4.90;4.40;;;13.50;1.00;;;;;;4990052;28;20206;-73
2023/05/15 02:20:38;;;;;;;6.00;4.07;;;13.40;1.00;;;;;;4988752;28;20207;-72
2023/05/15 02:23:03;;;;;;;4.43;4.00;;;13.40;1.00;;;;;;4987951;28;20226;-73
2023/05/15 02:25:44;;;;;;;5.90;4.40;;;13.30;1.00;;;;;;4988616;28;20199;-73
2023/05/15 02:28:22;;;;;;;7.13;4.57;;;13.50;1.00;;;;;;4987889;28;20662;-73
2023/05/15 02:30:56;;;;;;;4.70;4.30;;;13.20;1.00;;;;;;4988833;28;21270;-72
2023/05/15 02:33:48;;;;;;;6.93;4.60;;;13.10;1.00;;;;;;4989513;28;21182;-73
2023/05/15 02:36:26;;;;;;;4.83;4.33;;;13.10;1.00;;;;;;4987428;28;21216;-73
2023/05/15 02:38:53;;;;;;;6.20;4.50;;;13.00;1.00;;;;;;4989396;28;20480;-73
2023/05/15 02:41:19;;;;;;;5.30;4.23;;;12.90;1.00;;;;;;4987530;28;20521;-74
2023/05/15 02:43:47;;;;;;;5.10;4.50;;;12.90;1.00;;;;;;4987976;28;20781;-72
2023/05/15 02:46:14;;;;;;;5.33;4.67;;;12.80;1.00;;;;;;4987964;28;20454;-73
2023/05/15 02:48:41;;;;;;;6.60;4.17;;;12.80;1.00;;;;;;4988243;28;20438;-73
2023/05/15 02:51:07;;;;;;;5.97;4.60;;;12.70;1.00;;;;;;4989579;28;20488;-73
2023/05/15 02:53:37;;;;;;;5.53;4.10;;;12.70;1.00;;;;;;4987460;28;20442;-72
2023/05/15 02:56:03;;;;;;;5.57;4.43;;;12.60;1.00;;;;;;4989430;28;20446;-73
2023/05/15 02:58:29;;;;;;;8.67;4.23;;;12.60;1.00;;;;;;4987314;28;20798;-73
2023/05/15 03:00:55;;;;;;;5.60;4.20;;;12.50;1.00;;;;;;4986730;28;20179;-73
2023/05/15 03:03:20;;;;;;;4.93;4.10;;;12.60;1.00;;;;;;4986840;28;20186;-73
2023/05/15 03:05:46;;;;;;;6.40;4.17;;;12.30;1.00;;;;;;4985717;28;20454;-73
2023/05/15 03:08:11;;;;;;;5.33;4.40;;;12.30;1.00;;;;;;4985684;28;20191;-74
2023/05/15 03:10:37;;;;;;;8.70;5.27;;;12.20;1.00;;;;;;4986624;28;20737;-73
2023/05/15 03:13:02;;;;;;;7.23;4.47;;;12.10;1.00;;;;;;4986630;28;20184;-73
2023/05/15 03:15:28;;;;;;;8.73;4.40;;;12.20;1.00;;;;;;4986941;28;20215;-74
2023/05/15 03:17:53;;;;;;;5.83;4.57;;;12.20;1.00;;;;;;4987003;28;20270;-73
2023/05/15 03:20:19;;;;;;;4.90;4.40;;;12.20;1.00;;;;;;4985818;28;20580;-73
2023/05/15 03:22:44;;;;;;;5.53;4.20;;;12.20;1.00;;;;;;4984263;28;20187;-73
2023/05/15 03:25:10;;;;;;;6.23;4.70;;;12.20;1.00;;;;;;4987426;28;20704;-73
2023/05/15 03:27:36;;;;;;;8.60;5.00;;;12.20;1.00;;;;;;4986705;28;20193;-73
2023/05/15 03:30:03;;;;;;;5.67;4.67;;;12.10;1.00;;;;;;4987242;28;20521;-72
2023/05/15 03:32:28;;;;;;;6.13;4.53;;;12.10;1.00;;;;;;4987329;28;20493;-73
2023/05/15 03:34:54;;;;;;;7.50;5.10;;;12.20;1.00;;;;;;4985034;28;20446;-72
2023/05/15 03:37:19;;;;;;;7.20;4.60;;;12.20;1.00;;;;;;4986760;28;20215;-73
2023/05/15 03:39:45;;;;;;;8.03;5.20;;;12.20;1.00;;;;;;4986119;28;20210;-73
2023/05/15 03:42:10;;;;;;;7.30;4.93;;;12.10;1.00;;;;;;4986419;28;20183;-73
2023/05/15 03:44:36;;;;;;;7.07;4.90;;;12.10;1.00;;;;;;4985861;28;20183;-72
2023/05/15 03:47:01;;;;;;;5.40;4.70;;;12.20;1.00;;;;;;4986470;28;20749;-73
2023/05/15 03:49:27;;;;;;;9.40;5.63;;;12.20;1.00;;;;;;4988801;28;20187;-73
2023/05/15 03:51:52;;;;;;;5.33;4.83;;;12.70;1.00;;;;;;4988823;28;20593;-73
2023/05/15 03:54:18;;;;;;;5.90;4.90;;;11.80;1.00;;;;;;4990088;28;20258;-73
2023/05/15 03:56:43;;;;;;;5.73;4.77;;;12.10;1.00;;;;;;4990407;28;20219;-74
2023/05/15 03:59:09;;;;;;;6.77;5.30;;;12.10;1.00;;;;;;4988693;28;20214;-72
2023/05/15 04:01:35;;;;;;;5.73;4.80;;;12.10;1.00;;;;;;4989873;28;20772;-73
2023/05/15 04:04:00;;;;;;;7.80;4.77;;;12.20;1.00;;;;;;4988533;28;20233;-72
2023/05/15 04:06:26;;;;;;;6.00;4.60;;;12.30;1.00;;;;;;4990253;28;20203;-73
2023/05/15 04:08:51;;;;;;;7.33;5.30;;;12.40;1.00;;;;;;4988952;28;20179;-72
2023/05/15 04:11:17;;;;;;;9.03;4.60;;;12.40;1.00;;;;;;4989220;28;20612;-73
2023/05/15 04:13:42;;;;;;;6.40;5.20;;;12.50;1.00;;;;;;4988321;28;20286;-72
2023/05/15 04:16:08;;;;;;;5.73;5.13;;;12.50;1.00;;;;;;4989447;28;20595;-73
2023/05/15 04:18:34;;;;;;;9.37;5.40;;;12.60;1.00;;;;;;4989432;28;20187;-73
2023/05/15 04:20:59;;;;;;;10.40;6.43;;;12.60;1.00;;;;;;4989315;28;20445;-73
2023/05/15 04:23:25;;;;;;;6.57;5.40;;;12.60;1.00;;;;;;4989071;28;20213;-73
2023/05/15 04:25:52;;;;;;;7.77;5.83;;;12.60;1.00;;;;;;4990037;28;20846;-73
2023/05/15 04:28:20;;;;;;;7.07;5.57;;;12.60;1.00;;;;;;4988632;28;20624;-73
2023/05/15 04:30:46;;;;;;;7.47;5.77;;;12.60;1.00;;;;;;4989461;28;20442;-73
2023/05/15 04:33:11;;;;;;;7.30;6.20;;;12.60;1.00;;;;;;4990048;28;21175;-73
2023/05/15 04:35:37;;;;;;;8.37;6.10;;;12.50;1.00;;;;;;4986237;28;20206;-73
2023/05/15 04:38:03;;;;;;;21.20;14.00;;;12.60;1.00;;;;;;4989381;28;20187;-73
2023/05/15 04:40:28;;;;;;;25.43;14.93;;;12.60;1.00;;;;;;4989490;28;20207;-73
2023/05/15 04:42:54;;;;;;;12.00;8.57;;;12.60;1.00;;;;;;4989495;28;20186;-73
2023/05/15 04:45:20;;;;;;;12.53;6.47;;;12.70;1.00;;;;;;4990563;28;20254;-73
2023/05/15 04:47:45;;;;;;;8.30;6.60;;;12.70;1.00;;;;;;4988256;28;20207;-72
2023/05/15 04:50:11;;;;;;;8.83;6.83;;;12.70;1.00;;;;;;4990119;28;20503;-73
2023/05/15 04:52:36;;;;;;;10.50;6.43;;;12.80;1.00;;;;;;4989238;28;20187;-72
2023/05/15 04:55:02;;;;;;;10.07;7.40;;;12.80;1.00;;;;;;4987919;28;20289;-73
2023/05/15 04:57:29;;;;;;;11.17;7.27;;;12.80;1.00;;;;;;4989837;28;20817;-73
2023/05/15 04:59:54;;;;;;;8.27;6.67;;;12.90;1.00;;;;;;4987673;28;20285;-73
2023/05/15 05:02:21;;;;;;;10.33;6.83;;;12.90;1.00;;;;;;4989070;28;20549;-72
2023/05/15 05:04:47;;;;;;;7.40;6.60;;;12.90;1.00;;;;;;4989365;28;20183;-71
2023/05/15 05:07:12;;;;;;;7.87;6.53;;;13.00;1.00;;;;;;4987071;28;20441;-73
2023/05/15 05:09:38;;;;;;;7.40;6.27;;;13.00;1.00;;;;;;4989074;28;20300;-72
2023/05/15 05:12:08;;;;;;;10.40;5.97;;;13.10;1.00;;;;;;4988360;28;20270;-73
2023/05/15 05:14:33;;;;;;;9.53;6.80;;;13.20;1.00;;;;;;4987436;28;20435;-73
2023/05/15 05:16:59;;;;;;;6.83;5.90;;;13.20;1.00;;;;;;4989247;28;20469;-73
2023/05/15 05:19:26;;;;;;;12.30;6.50;;;13.30;1.00;;;;;;4988716;28;20206;-73
2023/05/15 05:21:52;;;;;;;7.63;6.30;;;13.40;1.00;;;;;;4988488;28;20519;-71
2023/05/15 05:24:18;;;;;;;8.03;6.67;;;13.40;1.00;;;;;;4987644;28;20465;-73
2023/05/15 05:26:44;;;;;;;8.03;6.20;;;13.50;1.00;;;;;;4988694;28;20203;-73
2023/05/15 05:29:09;;;;;;;8.13;6.57;;;13.60;1.00;;;;;;4988057;28;20242;-73
2023/05/15 05:31:35;;;;;;;8.47;6.30;;;13.70;1.00;;;;;;4988433;28;20203;-74
2023/05/15 05:34:00;;;;;;;10.63;7.00;;;13.80;1.00;;;;;;4987861;28;20249;-70
2023/05/15 05:36:26;;;;;;;12.17;6.40;;;13.80;1.00;;;;;;4986142;28;20243;-74
2023/05/15 05:38:51;;;;;;;7.87;6.63;;;13.80;1.00;;;;;;4986578;28;20198;-73
2023/05/15 05:41:17;;;;;;;8.03;6.43;;;13.90;1.00;;;;;;4988563;28;20285;-74
2023/05/15 05:43:42;;;;;;;7.70;6.37;;;14.00;1.00;;;;;;4986342;28;20357;-71
2023/05/15 05:46:08;;;;;;;8.10;6.60;;;14.00;1.00;;;;;;4987759;28;20217;-74
2023/05/15 05:48:33;;;;;;;8.00;6.47;;;14.20;1.00;;;;;;4987174;28;20620;-74
2023/05/15 05:50:59;;;;;;;8.20;6.17;;;14.20;1.00;;;;;;4987579;28;20250;-74
2023/05/15 05:53:24;;;;;;;11.03;6.57;;;14.20;1.00;;;;;;4988132;28;20214;-75
2023/05/15 05:55:50;;;;;;;8.63;6.57;;;14.30;1.00;;;;;;4985051;28;20692;-73
2023/05/15 05:58:17;;;;;;;8.23;6.27;;;14.50;1.00;;;;;;4985778;28;20202;-74
2023/05/15 06:00:43;;;;;;;7.67;6.10;;;14.60;1.00;;;;;;4988851;28;20210;-73
2023/05/15 06:03:08;;;;;;;8.20;6.73;;;14.70;1.00;;;;;;4985933;28;20438;-73
2023/05/15 06:05:34;;;;;;;7.40;6.57;;;14.90;1.00;;;;;;4985637;28;20202;-73
2023/05/15 06:08:01;;;;;;;12.23;6.50;;;15.10;1.00;;;;;;4986281;28;20187;-73
2023/05/15 06:10:26;;;;;;;9.57;6.47;;;15.40;1.00;;;;;;4986343;28;20751;-73
2023/05/15 06:12:52;;;;;;;9.67;6.70;;;15.60;1.00;;;;;;4983220;28;20442;-73
2023/05/15 06:15:17;;;;;;;9.60;6.00;;;15.60;1.00;;;;;;4985745;28;20242;-74
2023/05/15 06:17:43;;;;;;;9.30;6.37;;;15.60;1.00;;;;;;4985474;28;20186;-73
2023/05/15 06:20:08;;;;;;;9.00;7.33;;;15.70;1.00;;;;;;4988094;28;20222;-74
2023/05/15 06:22:37;;;;;;;7.90;6.80;;;15.60;1.00;;;;;;4985944;28;20609;-71
2023/05/15 06:25:04;;;;;;;7.50;6.70;;;15.60;1.00;;;;;;4992451;28;20189;-74
2023/05/15 06:27:30;;;;;;;14.50;6.43;;;15.70;1.00;;;;;;4969032;28;20438;-73
2023/05/15 06:29:56;;;;;;;6.90;6.20;;;15.90;1.00;;;;;;4989050;28;20438;-73
2023/05/15 06:32:21;;;;;;;7.47;6.67;;;16.10;1.00;;;;;;4988170;28;20427;-73
2023/05/15 06:34:47;;;;;;;8.17;6.70;;;16.10;1.00;;;;;;4988383;28;20190;-72
2023/05/15 06:37:12;;;;;;;9.43;7.50;;;16.20;1.00;;;;;;4987653;28;20325;-74
2023/05/15 06:39:38;;;;;;;9.03;6.70;;;16.20;1.00;;;;;;4984599;28;20226;-74
2023/05/15 06:42:04;;;;;;;10.70;7.93;;;16.30;1.00;;;;;;4986231;28;20215;-74
2023/05/15 06:44:30;;;;;;;8.17;7.27;;;16.50;1.00;;;;;;4983499;28;20206;-73
2023/05/15 06:46:56;;;;;;;10.30;8.10;;;16.60;1.00;;;;;;4985268;28;20536;-74
2023/05/15 06:49:22;;;;;;;9.00;7.63;;;16.70;1.00;;;;;;4983246;28;20245;-73
2023/05/15 06:51:48;;;;;;;11.10;7.70;;;16.70;1.00;;;;;;4985664;28;20442;-72
2023/05/15 06:54:13;;;;;;;11.47;8.70;;;16.80;1.00;;;;;;4986233;28;20449;-74
2023/05/15 06:56:39;;;;;;;11.67;8.63;;;17.00;1.00;;;;;;4986327;28;20582;-74
2023/05/15 06:59:05;;;;;;;11.13;9.00;;;17.20;1.00;;;;;;4985091;28;20211;-73
2023/05/15 07:01:30;;;;;;;10.40;8.53;;;17.20;1.00;;;;;;4983191;28;20175;-73
2023/05/15 07:03:56;;;;;;;8.70;7.70;;;17.30;1.00;;;;;;4986465;28;20193;-73
2023/05/15 07:08:47;;;;;;;9.10;7.90;;;17.60;1.00;;;;;;5059374;22;21260;-75
2023/05/15 07:11:13;;;;;;;9.20;7.70;;;17.80;1.00;;;;;;5004612;28;20260;-74
2023/05/15 07:13:38;;;;;;;10.07;6.90;;;17.90;1.00;;;;;;5004410;28;20553;-74
2023/05/15 07:16:04;;;;;;;10.10;6.90;;;18.20;1.00;;;;;;5003648;28;20282;-74
2023/05/15 07:18:30;;;;;;;8.90;7.00;;;18.30;1.00;;;;;;4992584;28;20215;-74
2023/05/15 07:20:55;;;;;;;9.40;7.00;;;18.70;1.00;;;;;;4988160;28;20213;-74
2023/05/15 07:23:20;;;;;;;9.93;7.07;;;18.90;1.00;;;;;;4979959;28;20184;-74
2023/05/15 07:25:47;;;;;;;9.93;7.40;;;19.10;1.00;;;;;;4977144;28;20550;-74
2023/05/15 07:28:12;;;;;;;9.27;6.80;;;19.30;1.00;;;;;;4984882;28;20306;-74
2023/05/15 07:30:37;;;;;;;11.53;7.60;;;19.40;1.00;;;;;;4984654;28;20885;-74
2023/05/15 07:33:03;;;;;;;10.10;7.23;;;19.50;1.00;;;;;;4984386;28;20190;-73
2023/05/15 07:35:29;;;;;;;9.80;7.00;;;19.70;1.00;;;;;;4982360;28;20191;-74
2023/05/15 07:37:54;;;;;;;8.20;6.87;;;20.00;1.00;;;;;;4985779;28;20198;-74
2023/05/15 07:40:20;;;;;;;11.00;7.20;;;20.00;1.00;;;;;;4989420;28;20211;-73
2023/05/15 07:42:45;;;;;;;10.43;7.27;;;20.40;1.00;;;;;;4981263;28;20187;-70
2023/05/15 07:45:11;;;;;;;12.70;6.83;;;20.80;1.00;;;;;;4985442;28;20213;-73
2023/05/15 07:47:36;;;;;;;7.70;6.43;;;21.10;1.00;;;;;;4987151;28;20619;-73
2023/05/15 07:50:02;;;;;;;17.23;7.57;;;21.50;1.00;;;;;;4989275;28;20185;-72
2023/05/15 07:52:28;;;;;;;9.80;7.47;;;21.60;1.00;;;;;;4986421;28;20191;-70
2023/05/15 07:54:53;;;;;;;15.83;6.77;;;21.60;1.00;;;;;;4978343;28;20211;-71
2023/05/15 07:57:19;;;;;;;8.30;6.43;;;21.70;1.00;;;;;;4990866;28;20248;-70
2023/05/15 07:59:45;;;;;;;7.50;6.23;;;21.60;1.00;;;;;;4975126;28;20254;-71
2023/05/15 08:02:10;;;;;;;8.03;6.37;;;21.50;1.00;;;;;;4979732;28;20192;-71
2023/05/15 08:04:36;;;;;;;7.60;6.07;;;21.70;1.00;;;;;;4978465;28;20271;-72
2023/05/15 08:07:01;;;;;;;6.10;5.23;;;21.90;1.00;;;;;;4988747;28;20235;-71
2023/05/15 08:09:27;;;;;;;9.23;6.67;;;22.10;1.00;;;;;;4980525;28;20278;-71
2023/05/15 08:11:55;;;;;;;7.80;7.00;;;22.40;1.00;;;;;;4990452;28;20567;-71
2023/05/15 08:14:20;;;;;;;9.00;7.03;;;22.30;1.00;;;;;;4986703;28;20445;-70
2023/05/15 08:16:48;;;;;;;8.73;7.23;;;22.50;1.00;;;;;;4982590;28;20469;-71
2023/05/15 08:19:13;;;;;;;7.87;6.37;;;22.80;1.00;;;;;;4983171;28;20715;-71
2023/05/15 08:21:39;;;;;;;8.10;6.37;;;22.90;1.00;;;;;;4986861;28;20434;-71
2023/05/15 08:24:05;;;;;;;9.00;6.37;;;22.70;1.00;;;;;;4981942;28;20163;-72
2023/05/15 08:26:31;;;;;;;7.00;6.30;;;22.30;1.00;;;;;;4975647;28;20803;-72
2023/05/15 08:28:57;;;;;;;8.00;5.80;;;22.30;1.00;;;;;;4983654;28;20174;-71
2023/05/15 08:31:22;;;;;;;9.73;6.90;;;22.40;1.00;;;;;;4989339;28;21008;-71
2023/05/15 08:33:48;;;;;;;12.33;6.57;;;22.80;1.00;;;;;;4986022;28;20249;-71
2023/05/15 08:36:14;;;;;;;7.73;6.83;;;24.40;1.00;;;;;;4978171;28;20209;-72
2023/05/15 08:38:39;;;;;;;8.73;6.67;;;23.20;1.00;;;;;;4972895;28;20695;-71
2023/05/15 08:41:24;;;;;;;14.37;6.93;;;23.80;1.00;;;;;;4983955;28;20187;-70
2023/05/15 08:43:53;;;;;;;10.60;7.17;;;24.40;1.00;;;;;;4985545;28;20236;-72
2023/05/15 08:46:20;;;;;;;10.20;6.80;;;25.20;1.00;;;;;;4979940;28;20472;-71
2023/05/15 08:48:46;;;;;;;7.93;7.03;;;26.10;1.00;;;;;;4976410;28;20450;-71
2023/05/15 08:51:13;;;;;;;8.47;6.90;;;27.10;1.00;;;;;;4980513;28;20460;-73
2023/05/15 08:53:38;;;;;;;8.20;7.23;;;27.80;1.00;;;;;;4976275;28;20186;-71
2023/05/15 08:56:04;;;;;;;7.47;6.67;;;27.90;1.00;;;;;;4980344;28;20475;-72
2023/05/15 08:58:31;;;;;;;10.43;6.90;;;27.90;1.00;;;;;;4974967;28;20281;-72
2023/05/15 09:00:57;;;;;;;7.50;6.70;;;28.30;1.00;;;;;;4973825;28;20210;-72
2023/05/15 09:03:23;;;;;;;7.53;6.43;;;29.00;1.00;;;;;;4980469;28;20187;-71
2023/05/15 09:05:51;;;;;;;8.15;6.13;;;29.90;1.00;;;;;;4980757;28;20689;-72
2023/05/15 09:08:20;;;;;;;7.85;7.05;;;30.40;1.00;;;;;;4977249;28;20206;-72
2023/05/15 09:10:47;;;;;;;10.23;6.30;;;31.00;1.00;;;;;;4976778;28;20238;-72
2023/05/15 09:13:14;;;;;;;7.35;6.55;;;31.00;1.00;;;;;;4984637;28;20200;-72
2023/05/15 09:15:40;;;;;;;7.80;6.65;;;31.00;1.00;;;;;;4975254;28;20197;-72
2023/05/15 09:18:06;;;;;;;9.90;6.10;;;30.30;1.00;;;;;;4986176;28;20756;-71
2023/05/15 09:20:36;;;;;;;7.93;6.03;;;29.80;1.00;;;;;;4983406;28;20211;-71
2023/05/15 09:23:05;;;;;;;7.03;6.15;;;29.10;1.00;;;;;;4978907;28;20253;-71
2023/05/15 09:25:42;;;;;;;12.02;6.97;;;28.30;1.00;;;;;;4969393;28;20675;-72
2023/05/15 09:28:31;;;;;;;10.60;7.72;;;28.40;1.00;;;;;;4978187;28;20708;-72
2023/05/15 09:31:01;;;;;;;8.73;7.32;;;29.70;1.00;;;;;;4981445;28;20350;-70
2023/05/15 09:33:32;;;;;;;9.48;8.48;;;30.30;1.00;;;;;;4980119;28;20187;-72
2023/05/15 09:35:58;;;;;;;11.13;8.57;;;29.90;1.00;;;;;;4982157;28;20218;-70
2023/05/15 09:38:24;;;;;;;13.80;8.10;;;30.00;1.00;;;;;;4984165;28;20238;-71
2023/05/15 09:41:03;;;;;;;8.85;7.95;;;30.60;1.00;;;;;;4989610;28;20291;-73
2023/05/15 09:43:32;;;;;;;10.02;7.72;;;31.00;1.00;;;;;;4981181;28;20657;-71
2023/05/15 09:45:57;;;;;;;10.27;7.70;;;31.50;1.00;;;;;;4990521;28;20193;-70
2023/05/15 09:48:23;;;;;;;9.07;8.18;;;31.80;1.00;;;;;;4979277;28;20206;-72
2023/05/15 09:50:48;;;;;;;11.07;9.40;;;31.60;1.00;;;;;;4976503;28;20190;-72
2023/05/15 09:53:14;;;;;;;10.32;9.10;;;30.80;1.00;;;;;;4980427;28;20306;-72
2023/05/15 09:55:42;;;;;;;13.85;9.25;;;30.60;1.00;;;;;;4985575;28;20233;-72
2023/05/15 09:58:12;;;;;;;9.27;8.27;;;31.50;1.00;;;;;;4983957;28;20301;-71
2023/05/15 10:00:39;;;;;;;12.10;9.10;;;32.20;1.00;;;;;;4981110;28;20319;-72
2023/05/15 10:03:06;;;;;;;11.25;8.00;;;32.30;1.00;;;;;;4988719;28;20274;-72
2023/05/15 10:05:32;;;;;;;9.75;7.45;;;32.50;1.00;;;;;;4985157;28;20184;-73
2023/05/15 10:07:58;;;;;;;13.25;7.85;;;32.90;1.00;;;;;;4982807;28;20223;-71
2023/05/15 10:10:25;;;;;;;10.20;7.50;;;30.30;1.00;;;;;;4979513;28;20179;-72
2023/05/15 10:12:52;;;;;;;11.60;7.88;;;30.20;1.00;;;;;;4982253;28;20531;-72
2023/05/15 10:15:21;;;;;;;9.25;7.68;;;30.60;1.00;;;;;;4976068;28;20301;-72
2023/05/15 10:17:48;;;;;;;12.55;7.32;;;31.90;1.00;;;;;;4986418;28;20210;-73
2023/05/15 10:20:24;;;;;;;7.07;6.38;;;32.90;1.00;;;;;;4983212;28;20214;-73
2023/05/15 10:22:52;;;;;;;8.68;7.20;;;33.60;1.00;;;;;;4977470;28;20321;-72
2023/05/15 10:25:41;;;;;;;9.10;7.43;;;33.20;1.00;;;;;;4975958;28;20677;-72
2023/05/15 10:28:10;;;;;;;9.23;7.32;;;32.90;1.00;;;;;;4977071;28;20718;-73
2023/05/15 10:30:37;;;;;;;9.23;8.15;;;33.30;1.00;;;;;;4983410;28;20657;-73
2023/05/15 10:33:04;;;;;;;9.43;7.32;;;34.20;1.00;;;;;;4981320;28;20613;-73
2023/05/15 10:35:30;;;;;;;9.65;7.93;;;34.50;1.00;;;;;;4982399;28;20214;-73
2023/05/15 10:37:56;;;;;;;8.52;7.15;;;34.70;1.00;;;;;;4989177;28;20206;-73
2023/05/15 10:40:23;;;;;;;11.48;7.55;;;35.00;1.00;;;;;;4985066;28;20744;-75
2023/05/15 10:42:49;;;;;;;737.03;376.25;;;35.10;1.00;;;;;;4975366;28;20187;-74
2023/05/15 10:45:15;;;;;;;488.80;213.07;;;35.60;1.00;;;;;;4982775;28;20309;-74
2023/05/15 10:47:42;;;;;;;80.90;31.08;;;36.30;1.00;;;;;;4979098;28;20667;-75
2023/05/15 10:50:09;;;;;;;248.77;103.30;;;36.60;1.00;;;;;;4979698;28;20553;-74
2023/05/15 10:52:35;;;;;;;147.18;56.60;;;36.30;1.00;;;;;;4983752;28;20558;-75
2023/05/15 10:55:04;;;;;;;55.35;24.15;;;36.00;1.00;;;;;;4977001;28;20187;-72
2023/05/15 10:57:30;;;;;;;19.77;11.52;;;36.10;1.00;;;;;;4973995;28;20202;-75
2023/05/15 10:59:56;;;;;;;103.68;43.97;;;36.40;1.00;;;;;;4988136;28;20202;-74
2023/05/15 11:02:24;;;;;;;18.80;11.30;;;36.70;1.00;;;;;;4988533;28;20233;-75
2023/05/15 11:05:00;;;;;;;12.95;7.80;;;36.50;1.00;;;;;;4994993;28;20733;-73
2023/05/15 11:07:26;;;;;;;6.22;5.53;;;36.80;1.00;;;;;;4979734;28;20711;-73
2023/05/15 11:09:52;;;;;;;8.10;6.00;;;37.40;1.00;;;;;;4980454;28;20199;-73
2023/05/15 11:12:18;;;;;;;13.52;5.95;;;37.50;1.00;;;;;;4986053;28;20269;-73
2023/05/15 11:14:56;;;;;;;7.55;6.60;;;36.60;1.00;;;;;;4987935;28;20174;-73
2023/05/15 11:17:25;;;;;;;8.85;7.28;;;35.70;1.00;;;;;;4974836;28;20257;-73
2023/05/15 11:19:51;;;;;;;8.27;6.97;;;36.10;1.00;;;;;;4985215;28;20558;-74
2023/05/15 11:22:21;;;;;;;11.48;6.88;;;36.30;1.00;;;;;;4989169;28;20190;-72
2023/05/15 11:24:53;;;;;;;7.38;6.57;;;36.80;1.00;;;;;;4988356;28;20179;-74
2023/05/15 11:27:24;;;;;;;6.53;5.03;;;38.30;1.00;;;;;;4981726;28;20214;-74
2023/05/15 11:30:21;;;;;;;9.07;5.35;;;37.80;1.00;;;;;;4987295;28;20262;-74
2023/05/15 11:33:01;;;;;;;7.35;6.35;;;37.80;1.00;;;;;;4987646;28;20237;-73
2023/05/15 11:35:33;;;;;;;9.15;7.25;;;38.20;1.00;;;;;;4980104;28;20241;-73
2023/05/15 11:38:03;;;;;;;13.50;7.05;;;38.50;1.00;;;;;;4988435;28;20230;-73
2023/05/15 11:40:30;;;;;;;7.15;6.40;;;37.90;1.00;;;;;;4978867;28;20717;-73
2023/05/15 11:43:22;;;;;;;9.55;8.32;;;37.70;1.00;;;;;;4982613;28;20416;-73
2023/05/15 11:45:54;;;;;;;9.90;8.18;;;38.10;1.00;;;;;;4989756;28;20183;-73
2023/05/15 11:48:21;;;;;;;9.00;8.07;;;38.20;1.00;;;;;;4980527;28;20233;-75
2023/05/15 11:50:47;;;;;;;10.13;7.80;;;38.40;1.00;;;;;;4988786;28;20245;-73
2023/05/15 11:53:13;;;;;;;9.98;7.53;;;38.50;1.00;;;;;;4976419;28;20182;-73
2023/05/15 11:55:42;;;;;;;10.55;8.25;;;38.60;1.00;;;;;;4984238;28;20187;-73
2023/05/15 11:58:16;;;;;;;10.07;8.38;;;38.20;1.00;;;;;;4988522;28;20209;-73
2023/05/15 12:00:43;;;;;;;9.85;8.65;;;36.90;1.00;;;;;;4978578;28;20321;-73
2023/05/15 12:03:26;;;;;;;7.95;6.97;;;34.80;1.00;;;;;;4980251;28;20356;-73
2023/05/15 12:05:53;;;;;;;9.15;7.40;;;34.80;1.00;;;;;;4987504;28;20695;-73
2023/05/15 12:08:22;;;;;;;11.35;8.13;;;34.80;1.00;;;;;;4985174;28;20206;-73
2023/05/15 12:10:47;;;;;;;8.93;7.90;;;34.40;1.00;;;;;;4974999;28;20188;-73
2023/05/15 12:13:14;;;;;;;8.88;7.90;;;33.10;1.00;;;;;;4980653;28;20193;-73
2023/05/15 12:15:42;;;;;;;11.82;7.90;;;31.30;1.00;;;;;;4980269;28;20290;-73
2023/05/15 12:18:08;;;;;;;10.70;8.45;;;30.10;1.00;;;;;;4984232;28;20236;-73
2023/05/15 12:20:36;;;;;;;14.05;8.60;;;30.30;1.00;;;;;;4975804;28;20223;-72
2023/05/15 12:23:03;;;;;;;11.85;8.75;;;30.20;1.00;;;;;;4981559;28;20441;-72
2023/05/15 12:25:29;;;;;;;11.65;8.68;;;29.50;1.00;;;;;;4982449;28;20183;-73
2023/05/15 12:27:55;;;;;;;11.05;8.55;;;29.10;1.00;;;;;;4984174;28;20256;-72
2023/05/15 12:30:21;;;;;;;10.32;8.63;;;28.60;1.00;;;;;;4982364;28;20182;-72
2023/05/15 12:32:47;;;;;;;11.27;8.25;;;27.60;1.00;;;;;;4986874;28;20193;-72
2023/05/15 12:35:12;;;;;;;9.18;7.07;;;31.10;1.00;;;;;;4985670;28;20190;-73
2023/05/15 12:37:41;;;;;;;8.38;7.43;;;33.00;1.00;;;;;;4985669;28;20261;-72
2023/05/15 12:40:10;;;;;;;10.52;7.97;;;34.70;1.00;;;;;;4982895;28;20203;-74
2023/05/15 12:42:41;;;;;;;9.93;8.10;;;36.00;1.00;;;;;;4981535;28;20189;-72
2023/05/15 12:45:17;;;;;;;9.68;6.90;;;36.90;1.00;;;;;;4987141;28;20190;-71
2023/05/15 12:47:45;;;;;;;7.07;6.38;;;37.30;1.00;;;;;;4994255;28;20546;-73
2023/05/15 12:50:15;;;;;;;11.68;6.72;;;36.50;1.00;;;;;;4988213;28;20688;-72
2023/05/15 12:52:55;;;;;;;7.70;6.55;;;33.90;1.00;;;;;;4982456;28;20191;-72
2023/05/15 12:55:24;;;;;;;12.20;6.97;;;32.20;1.00;;;;;;4986969;28;20190;-71
2023/05/15 12:57:58;;;;;;;8.48;6.13;;;30.70;1.00;;;;;;4987688;28;20237;-71